Time,TemperatureF,DewpointF,PressureIn,WindDirection,WindDirectionDegrees,WindSpeedMPH,WindSpeedGustMPH,Humidity,HourlyPrecipIn,Conditions,Clouds,dailyrainin,SolarRadiationWatts/m^2,SoftwareType,DateUTC
2013-09-04 00:00:00,64.6,63.0,29.96,ESE,107,0.0,0.0,95,0.00,,,0.00,0,weatherlink.com 1.10,2013-09-04 04:00:00,
2013-09-04 00:15:00,64.7,64.0,29.96,East,101,0.0,2.0,96,0.00,,,0.00,0,weatherlink.com 1.10,2013-09-04 04:15:00,
2013-09-04 00:30:00,64.8,64.0,29.95,ESE,120,3.0,4.0,96,0.00,,,0.00,0,weatherlink.com 1.10,2013-09-04 04:30:00,
2013-09-04 00:45:00,64.9,64.0,29.96,East,91,3.0,3.0,96,0.00,,,0.00,0,weatherlink.com 1.10,2013-09-04 04:45:00,
2013-09-04 01:01:00,64.7,63.0,29.95,East,100,0.0,3.0,95,0.00,,,0.00,0,weatherlink.com 1.10,2013-09-04 05:01:00,
2013-09-04 01:16:00,64.1,63.0,29.95,East,100,0.0,0.0,95,0.00,,,0.00,0,weatherlink.com 1.10,2013-09-04 05:16:00,
2013-09-04 01:31:00,63.9,63.0,29.95,East,100,1.0,1.0,96,0.00,,,0.00,0,weatherlink.com 1.10,2013-09-04 05:31:00,
2013-09-04 01:46:00,64.6,64.0,29.96,East,100,0.0,1.0,96,0.00,,,0.00,0,weatherlink.com 1.10,2013-09-04 05:46:00,
2013-09-04 02:01:00,65.2,64.0,29.95,East,100,0.0,0.0,96,0.00,,,0.00,0,weatherlink.com 1.10,2013-09-04 06:01:00,
2013-09-04 02:16:00,65.0,64.0,29.95,ESE,104,3.0,3.0,96,0.00,,,0.00,0,weatherlink.com 1.10,2013-09-04 06:16:00,
2013-09-04 02:31:00,65.1,64.0,29.95,ENE,76,0.0,1.0,96,0.00,,,0.00,0,weatherlink.com 1.10,2013-09-04 06:31:00,
2013-09-04 02:46:00,65.2,64.0,29.96,ENE,76,0.0,1.0,96,0.00,,,0.00,0,weatherlink.com 1.10,2013-09-04 06:46:00,
2013-09-04 03:01:00,65.4,64.0,29.95,ENE,76,0.0,0.0,96,0.00,,,0.00,0,weatherlink.com 1.10,2013-09-04 07:01:00,
2013-09-04 03:16:00,65.0,64.0,29.95,ESE,117,1.0,4.0,96,0.00,,,0.00,0,weatherlink.com 1.10,2013-09-04 07:16:00,
2013-09-04 03:31:00,64.6,64.0,29.95,ESE,103,1.0,3.0,96,0.00,,,0.00,0,weatherlink.com 1.10,2013-09-04 07:31:00,
2013-09-04 03:46:00,64.6,64.0,29.95,East,85,1.0,3.0,97,0.00,,,0.00,0,weatherlink.com 1.10,2013-09-04 07:46:00,
2013-09-04 04:01:00,64.8,64.0,29.95,East,101,1.0,1.0,97,0.00,,,0.00,0,weatherlink.com 1.10,2013-09-04 08:01:00,
2013-09-04 04:16:00,65.2,64.0,29.95,SE,145,0.0,1.0,97,0.00,,,0.00,0,weatherlink.com 1.10,2013-09-04 08:16:00,
2013-09-04 04:31:00,64.7,64.0,29.96,ESE,106,1.0,2.0,97,0.00,,,0.00,0,weatherlink.com 1.10,2013-09-04 08:31:00,
2013-09-04 04:46:00,64.5,64.0,29.96,SSE,153,0.0,2.0,97,0.00,,,0.00,0,weatherlink.com 1.10,2013-09-04 08:46:00,
2013-09-04 05:01:00,64.4,64.0,29.96,East,95,0.0,1.0,97,0.00,,,0.00,0,weatherlink.com 1.10,2013-09-04 09:01:00,
2013-09-04 05:16:00,64.4,64.0,29.97,East,95,0.0,1.0,97,0.00,,,0.00,0,weatherlink.com 1.10,2013-09-04 09:16:00,
2013-09-04 05:31:00,64.6,64.0,29.97,East,95,0.0,0.0,97,0.00,,,0.00,0,weatherlink.com 1.10,2013-09-04 09:31:00,
2013-09-04 05:46:00,64.5,64.0,29.97,East,95,0.0,0.0,97,0.00,,,0.00,0,weatherlink.com 1.10,2013-09-04 09:46:00,
2013-09-04 06:01:00,64.6,64.0,29.97,East,95,0.0,0.0,97,0.00,,,0.00,0,weatherlink.com 1.10,2013-09-04 10:01:00,
2013-09-04 06:16:00,64.6,64.0,29.98,SE,146,0.0,2.0,97,0.00,,,0.00,0,weatherlink.com 1.10,2013-09-04 10:16:00,
2013-09-04 06:31:00,64.2,63.0,29.98,SSW,206,2.0,3.0,97,0.00,,,0.00,0,weatherlink.com 1.10,2013-09-04 10:31:00,
2013-09-04 06:46:00,64.3,64.0,29.99,South,178,0.0,3.0,97,0.00,,,0.00,0,weatherlink.com 1.10,2013-09-04 10:46:00,
2013-09-04 07:01:00,64.1,63.0,30.00,SSW,209,0.0,2.0,97,0.00,,,0.00,0,weatherlink.com 1.10,2013-09-04 11:01:00,
2013-09-04 07:16:00,63.9,63.0,30.00,SSW,210,0.0,1.0,97,0.00,,,0.00,0,weatherlink.com 1.10,2013-09-04 11:16:00,
2013-09-04 07:31:00,64.1,63.0,30.01,SW,217,0.0,2.0,97,0.00,,,0.00,5,weatherlink.com 1.10,2013-09-04 11:31:00,
2013-09-04 07:46:00,64.2,63.0,30.02,SSE,151,0.0,2.0,97,0.00,,,0.00,12,weatherlink.com 1.10,2013-09-04 11:46:00,
2013-09-04 08:01:00,64.1,63.0,30.02,South,179,1.0,3.0,97,0.00,,,0.00,21,weatherlink.com 1.10,2013-09-04 12:01:00,
2013-09-04 08:16:00,64.3,64.0,30.02,SSE,159,0.0,0.0,97,0.00,,,0.00,83,weatherlink.com 1.10,2013-09-04 12:16:00,
2013-09-04 08:31:00,64.7,64.0,30.03,SSE,159,0.0,2.0,97,0.00,,,0.00,84,weatherlink.com 1.10,2013-09-04 12:31:00,
2013-09-04 08:46:00,64.5,64.0,30.03,ENE,75,1.0,2.0,97,0.00,,,0.00,63,weatherlink.com 1.10,2013-09-04 12:46:00,
2013-09-04 09:01:00,64.6,64.0,30.03,East,80,0.0,2.0,97,0.00,,,0.00,144,weatherlink.com 1.10,2013-09-04 13:01:00,
2013-09-04 09:16:00,65.8,65.0,30.03,SSE,162,1.0,1.0,97,0.00,,,0.00,204,weatherlink.com 1.10,2013-09-04 13:16:00,
2013-09-04 09:31:00,65.8,65.0,30.04,SSW,207,0.0,1.0,97,0.00,,,0.00,318,weatherlink.com 1.10,2013-09-04 13:31:00,
2013-09-04 09:46:00,66.4,66.0,30.04,West,268,0.0,3.0,97,0.00,,,0.00,218,weatherlink.com 1.10,2013-09-04 13:46:00,
2013-09-04 10:01:00,67.4,66.0,30.05,SSE,153,0.0,0.0,96,0.00,,,0.00,243,weatherlink.com 1.10,2013-09-04 14:01:00,
2013-09-04 10:16:00,68.7,68.0,30.05,North,5,0.0,2.0,96,0.00,,,0.00,508,weatherlink.com 1.10,2013-09-04 14:16:00,
2013-09-04 10:32:00,70.9,68.0,30.05,West,259,1.0,2.0,91,0.00,,,0.00,540,weatherlink.com 1.10,2013-09-04 14:32:00,
2013-09-04 10:47:00,72.7,69.0,30.04,NW,323,2.0,5.0,88,0.00,,,0.00,605,weatherlink.com 1.10,2013-09-04 14:47:00,
2013-09-04 11:02:00,74.0,69.0,30.05,North,5,1.0,5.0,84,0.00,,,0.00,635,weatherlink.com 1.10,2013-09-04 15:02:00,
2013-09-04 11:17:00,75.0,69.0,30.05,NNW,331,2.0,4.0,81,0.00,,,0.00,728,weatherlink.com 1.10,2013-09-04 15:17:00,
2013-09-04 11:32:00,75.6,68.0,30.04,North,349,2.0,5.0,78,0.00,,,0.00,712,weatherlink.com 1.10,2013-09-04 15:32:00,
2013-09-04 12:02:00,78.0,69.0,30.04,North,349,0.0,4.0,74,0.00,,,0.00,717,weatherlink.com 1.10,2013-09-04 16:02:00,
2013-09-04 12:17:00,78.2,70.0,30.04,NW,306,0.0,4.0,76,0.00,,,0.00,443,weatherlink.com 1.10,2013-09-04 16:17:00,
2013-09-04 12:32:00,78.5,69.0,30.04,WNW,296,0.0,5.0,73,0.00,,,0.00,606,weatherlink.com 1.10,2013-09-04 16:32:00,
2013-09-04 12:47:00,77.8,68.0,30.04,North,360,2.0,4.0,71,0.00,,,0.00,464,weatherlink.com 1.10,2013-09-04 16:47:00,
2013-09-04 13:02:00,78.7,67.0,30.04,WSW,250,0.0,5.0,68,0.00,,,0.00,687,weatherlink.com 1.10,2013-09-04 17:02:00,
2013-09-04 13:17:00,79.5,67.0,30.04,NNW,344,6.0,6.0,66,0.00,,,0.00,766,weatherlink.com 1.10,2013-09-04 17:17:00,
2013-09-04 13:32:00,79.3,68.0,30.04,NNW,346,3.0,5.0,68,0.00,,,0.00,615,weatherlink.com 1.10,2013-09-04 17:32:00,
2013-09-04 13:47:00,79.3,69.0,30.03,NW,308,2.0,4.0,71,0.00,,,0.00,469,weatherlink.com 1.10,2013-09-04 17:47:00,
2013-09-04 14:02:00,79.6,69.0,30.03,NW,326,2.0,4.0,71,0.00,,,0.00,591,weatherlink.com 1.10,2013-09-04 18:02:00,
2013-09-04 14:17:00,79.9,69.0,30.02,NNW,344,4.0,5.0,69,0.00,,,0.00,673,weatherlink.com 1.10,2013-09-04 18:17:00,
2013-09-04 14:32:00,80.0,69.0,30.02,SW,225,1.0,5.0,69,0.00,,,0.00,432,weatherlink.com 1.10,2013-09-04 18:32:00,
2013-09-04 14:47:00,81.1,68.0,30.02,NNW,346,2.0,5.0,65,0.00,,,0.00,700,weatherlink.com 1.10,2013-09-04 18:47:00,
2013-09-04 15:02:00,81.0,68.0,30.02,North,360,2.0,7.0,65,0.00,,,0.00,798,weatherlink.com 1.10,2013-09-04 19:02:00,
2013-09-04 15:17:00,80.9,67.0,30.01,SW,218,0.0,6.0,63,0.00,,,0.00,631,weatherlink.com 1.10,2013-09-04 19:17:00,
2013-09-04 15:32:00,81.6,68.0,30.01,North,9,4.0,6.0,63,0.00,,,0.00,768,weatherlink.com 1.10,2013-09-04 19:32:00,
2013-09-04 15:47:00,81.5,67.0,30.01,WNW,294,1.0,6.0,62,0.00,,,0.00,679,weatherlink.com 1.10,2013-09-04 19:47:00,
2013-09-04 16:02:00,82.1,69.0,30.00,WSW,244,6.0,6.0,65,0.00,,,0.00,664,weatherlink.com 1.10,2013-09-04 20:02:00,
2013-09-04 16:17:00,82.8,69.0,30.00,SSW,195,3.0,3.0,63,0.00,,,0.00,619,weatherlink.com 1.10,2013-09-04 20:17:00,
2013-09-04 16:32:00,83.0,68.0,30.00,WNW,296,0.0,5.0,61,0.00,,,0.00,559,weatherlink.com 1.10,2013-09-04 20:32:00,
2013-09-04 16:47:00,83.6,67.0,30.00,South,178,0.0,4.0,57,0.00,,,0.00,575,weatherlink.com 1.10,2013-09-04 20:47:00,
2013-09-04 17:02:00,83.6,69.0,30.00,SSW,203,4.0,4.0,62,0.00,,,0.00,506,weatherlink.com 1.10,2013-09-04 21:02:00,
2013-09-04 17:17:00,83.8,69.0,29.99,SSW,208,2.0,4.0,61,0.00,,,0.00,466,weatherlink.com 1.10,2013-09-04 21:17:00,
2013-09-04 17:32:00,83.4,69.0,29.99,NNW,341,0.0,5.0,63,0.00,,,0.00,436,weatherlink.com 1.10,2013-09-04 21:32:00,
2013-09-04 17:47:00,82.7,67.0,29.98,West,279,2.0,5.0,59,0.00,,,0.00,257,weatherlink.com 1.10,2013-09-04 21:47:00,
2013-09-04 18:02:00,82.3,68.0,29.98,West,262,1.0,4.0,62,0.00,,,0.00,322,weatherlink.com 1.10,2013-09-04 22:02:00,
2013-09-04 18:17:00,81.7,68.0,29.99,NW,325,3.0,4.0,63,0.00,,,0.00,253,weatherlink.com 1.10,2013-09-04 22:17:00,
2013-09-04 18:32:00,81.4,67.0,29.99,NNW,345,0.0,4.0,62,0.00,,,0.00,206,weatherlink.com 1.10,2013-09-04 22:32:00,
2013-09-04 18:47:00,81.1,68.0,29.99,West,262,1.0,3.0,64,0.00,,,0.00,151,weatherlink.com 1.10,2013-09-04 22:47:00,
2013-09-04 19:02:00,80.5,69.0,29.99,WNW,295,0.0,2.0,67,0.00,,,0.00,98,weatherlink.com 1.10,2013-09-04 23:02:00,
2013-09-04 19:17:00,78.8,69.0,29.99,East,80,0.0,1.0,71,0.00,,,0.00,32,weatherlink.com 1.10,2013-09-04 23:17:00,
2013-09-04 19:32:00,76.7,68.0,29.99,East,80,0.0,0.0,74,0.00,,,0.00,19,weatherlink.com 1.10,2013-09-04 23:32:00,
2013-09-04 19:47:00,75.1,69.0,29.99,East,80,0.0,0.0,81,0.00,,,0.00,9,weatherlink.com 1.10,2013-09-04 23:47:00,
2013-09-04 20:02:00,72.9,68.0,30.00,East,90,1.0,1.0,84,0.00,,,0.00,0,weatherlink.com 1.10,2013-09-05 00:02:00,
2013-09-04 20:18:00,71.8,68.0,30.00,ESE,111,1.0,3.0,87,0.00,,,0.00,0,weatherlink.com 1.10,2013-09-05 00:18:00,
2013-09-04 20:33:00,71.2,68.0,30.01,East,83,0.0,2.0,88,0.00,,,0.00,0,weatherlink.com 1.10,2013-09-05 00:33:00,
2013-09-04 20:48:00,70.2,67.0,30.02,SE,128,1.0,3.0,90,0.00,,,0.00,0,weatherlink.com 1.10,2013-09-05 00:48:00,
2013-09-04 21:03:00,69.5,67.0,30.03,ESE,122,1.0,2.0,91,0.00,,,0.00,0,weatherlink.com 1.10,2013-09-05 01:03:00,
2013-09-04 21:18:00,68.9,66.0,30.03,ESE,122,0.0,2.0,91,0.00,,,0.00,0,weatherlink.com 1.10,2013-09-05 01:18:00,
2013-09-04 21:33:00,68.3,66.0,30.04,ESE,113,0.0,2.0,92,0.00,,,0.00,0,weatherlink.com 1.10,2013-09-05 01:33:00,
2013-09-04 21:48:00,67.7,66.0,30.05,SE,128,3.0,3.0,93,0.00,,,0.00,0,weatherlink.com 1.10,2013-09-05 01:48:00,
2013-09-04 22:03:00,67.4,65.0,30.05,SE,135,0.0,1.0,93,0.00,,,0.00,0,weatherlink.com 1.10,2013-09-05 02:03:00,
2013-09-04 22:18:00,67.0,65.0,30.06,ESE,123,0.0,1.0,93,0.00,,,0.00,0,weatherlink.com 1.10,2013-09-05 02:18:00,
2013-09-04 22:33:00,66.8,65.0,30.06,ESE,122,0.0,2.0,94,0.00,,,0.00,0,weatherlink.com 1.10,2013-09-05 02:33:00,
2013-09-04 22:48:00,66.3,65.0,30.07,ESE,122,0.0,1.0,94,0.00,,,0.00,0,weatherlink.com 1.10,2013-09-05 02:48:00,
2013-09-04 23:03:00,65.9,65.0,30.07,ESE,122,1.0,2.0,95,0.00,,,0.00,0,weatherlink.com 1.10,2013-09-05 03:03:00,
2013-09-04 23:18:00,65.8,64.0,30.07,ESE,103,0.0,2.0,95,0.00,,,0.00,0,weatherlink.com 1.10,2013-09-05 03:18:00,
2013-09-04 23:33:00,65.7,64.0,30.07,ESE,103,0.0,0.0,95,0.00,,,0.00,0,weatherlink.com 1.10,2013-09-05 03:33:00,
2013-09-04 23:48:00,65.5,64.0,30.07,SW,225,0.0,2.0,95,0.00,,,0.00,0,weatherlink.com 1.10,2013-09-05 03:48:00,